Allen, MI (49227)

4:44 PM EST on February 12, 2016 (GMT -0500)
APRSWXNET | | Change Station
CLOSE
Current Station
Personal Weather Station
Location: Litchfield, MI
Elevation: 1055 ft
Nearby Weather Stations

Elev 1055 ft 42.05 °N, 84.75 °W | Updated 26 minutes ago

Snow
Snow
17 °F
Feels Like 9 °F
N
5
Wind Variable Wind from WSW
Gusts 15.0 mph

Today
High -- | Low -- °F
--% Chance of Precip.
Yesterday
High -- | Low -- °F
Precip. -- in
Pressure 29.99 in
Visibility 1.0 miles
Clouds Mostly Cloudy 600 ft
Overcast 1900 ft
Windchill 9 °F
Dew Point 12 °F
Humidity 79%
Rainfall in
Snow Depth Not available.
7:39 AM 6:07 PM
Waxing Crescent, 24% visible
METAR KJYM 122135Z AUTO 31018G27KT 1SM -SN BKN006 OVC019 M08/M12 A2999 RMK AO2 VIS 1/2V4 T10821117
Pressure 29.99 in
Visibility 1.0 miles
Clouds Mostly Cloudy 600 ft
Overcast 1900 ft
Windchill 9 °F
Dew Point 12 °F
Humidity 79%
Rainfall in
Snow Depth Not available.
7:39 AM 6:07 PM
Waxing Crescent, 24% visible
METAR KJYM 122135Z AUTO 31018G27KT 1SM -SN BKN006 OVC019 M08/M12 A2999 RMK AO2 VIS 1/2V4 T10821117

10-Day Weather Forecast

Almanac

Astronomy

Feb. 12, 2016 Rise Set
Actual Time
Civil Twilight
Nautical Twilight
Astronomical Twilight
Moon
Length of Visible Light
Length of Day
Tomorrow will be .
, % of the Moon is Illuminated

Today's Extremes

State Highs State Lows

Community

WunderPhotos

Upload Photos

1,892,408 photos uploaded!

WunderBlog® & News

Nearby

Air Quality

  Air Quality AQ Index Pollutant
Not available.

Snow Depth

Station Depth Elevation

Earthquake Activity

City Distance Mag. Time & Date
Minimum magnitude displayed is 2.5.

Coastal Water Temperatures

Place Temperature

Stations

Nearby Weather Stations

Station Location Temp. Windchill Dew Point Humidity Wind Precip. Elev Updated Type
                   

Watches & Warnings

There are currently no watches in effect.